createdAt,value
2022-09-23T00:01:15.916Z,48.97
2022-09-23T00:03:45.433Z,40.03
2022-09-23T00:06:15.476Z,36.63
2022-09-23T00:08:42.122Z,43.80
2022-09-23T00:11:29.005Z,50.45
2022-09-23T00:13:59.196Z,48.58
2022-09-23T00:16:28.820Z,47.78
2022-09-23T00:18:55.865Z,38.25
2022-09-23T00:21:23.303Z,46.15
2022-09-23T00:23:50.207Z,45.05
2022-09-23T00:26:19.634Z,46.60
2022-09-23T00:28:47.182Z,51.75
2022-09-23T00:31:20.167Z,50.80
2022-09-23T00:33:47.181Z,54.42
2022-09-23T00:36:15.862Z,46.88
2022-09-23T00:38:44.148Z,54.53
2022-09-23T00:41:11.838Z,57.05
2022-09-23T00:43:42.073Z,46.70
2022-09-23T00:46:11.935Z,58.50
2022-09-23T00:48:41.149Z,53.80
2022-09-23T00:51:10.480Z,48.10
2022-09-23T00:53:38.336Z,51.97
2022-09-23T00:56:08.747Z,57.22
2022-09-23T00:58:39.491Z,53.40
2022-09-23T01:01:07.263Z,67.93
2022-09-23T01:03:34.099Z,63.30
2022-09-23T01:06:01.037Z,59.67
2022-09-23T01:08:28.355Z,62.53
2022-09-23T01:11:22.219Z,58.78
2022-09-23T01:14:16.959Z,62.78
2022-09-23T01:17:03.200Z,51.88
2022-09-23T01:19:57.734Z,54.50
2022-09-23T01:22:54.186Z,47.40
2022-09-23T01:25:26.590Z,51.53
2022-09-23T01:28:08.172Z,50.33
2022-09-23T01:30:56.494Z,42.28
2022-09-23T01:33:41.375Z,47.30
2022-09-23T01:36:11.097Z,51.50
2022-09-23T01:39:03.064Z,49.22
2022-09-23T01:41:43.932Z,47.33
2022-09-23T01:44:21.906Z,53.60
2022-09-23T01:46:53.872Z,54.03
2022-09-23T01:49:29.935Z,55.13
2022-09-23T01:52:22.665Z,56.70
2022-09-23T01:54:54.624Z,56.25
2022-09-23T01:57:38.016Z,70.15
2022-09-23T02:00:11.841Z,62.53
2022-09-23T02:02:49.678Z,63.15
2022-09-23T02:05:33.652Z,62.35
2022-09-23T02:08:11.216Z,67.82
2022-09-23T02:10:49.237Z,64.65
2022-09-23T02:13:34.592Z,62.30
2022-09-23T02:16:06.381Z,64.50
2022-09-23T02:18:42.810Z,60.08
2022-09-23T02:21:09.793Z,59.55
2022-09-23T02:23:42.877Z,61.78
2022-09-23T02:26:35.204Z,74.97
2022-09-23T02:29:10.698Z,58.60
2022-09-23T02:31:43.715Z,77.47
2022-09-23T02:34:18.444Z,55.97
2022-09-23T02:37:16.059Z,51.95
2022-09-23T02:39:58.788Z,47.60
2022-09-23T02:42:37.912Z,44.47
2022-09-23T02:45:05.371Z,47.83
2022-09-23T02:47:34.925Z,46.67
2022-09-23T02:50:02.000Z,42.42
2022-09-23T02:52:28.761Z,50.45
2022-09-23T02:54:56.537Z,50.28
2022-09-23T02:57:23.342Z,60.80
2022-09-23T02:59:50.124Z,45.97
2022-09-23T03:02:41.978Z,56.53
2022-09-23T03:05:08.740Z,52.63
2022-09-23T03:07:41.609Z,61.72
2022-09-23T03:10:33.909Z,74.10
2022-09-23T03:13:29.615Z,72.90
2022-09-23T03:15:57.195Z,60.47
2022-09-23T03:18:42.688Z,68.30
2022-09-23T03:21:26.894Z,71.72
2022-09-23T03:23:57.096Z,68.35
2022-09-23T03:26:29.030Z,73.97
2022-09-23T03:31:20.529Z,69.40
2022-09-23T03:33:51.046Z,70.97
2022-09-23T03:36:42.157Z,66.55
2022-09-23T03:39:14.816Z,74.82
2022-09-23T03:41:52.963Z,66.95
2022-09-23T03:44:21.324Z,67.00
2022-09-23T03:46:51.195Z,65.93
2022-09-23T03:49:24.327Z,60.47
2022-09-23T03:51:50.893Z,63.00
2022-09-23T03:56:35.989Z,63.40
2022-09-23T03:59:02.545Z,69.28
2022-09-23T04:01:29.738Z,68.18
2022-09-23T04:03:56.436Z,67.32
2022-09-23T04:06:23.113Z,74.18
2022-09-23T04:08:50.122Z,69.85
2022-09-23T04:11:16.772Z,73.47
2022-09-23T04:13:43.327Z,76.68
2022-09-23T04:16:09.909Z,73.57
2022-09-23T04:18:36.592Z,81.82
2022-09-23T04:21:03.155Z,78.97
2022-09-23T04:23:30.035Z,79.78
2022-09-23T04:25:56.765Z,71.03
2022-09-23T04:28:23.413Z,76.47
2022-09-23T04:30:50.315Z,82.72
2022-09-23T04:33:17.528Z,79.28
2022-09-23T04:35:44.324Z,91.72
2022-09-23T04:38:12.487Z,79.88
2022-09-23T04:40:39.673Z,75.30
2022-09-23T04:43:08.621Z,74.85
2022-09-23T04:45:38.275Z,82.45
2022-09-23T04:48:05.088Z,84.72
2022-09-23T04:50:33.933Z,81.10
2022-09-23T04:53:00.844Z,75.65
2022-09-23T04:55:27.605Z,86.90
2022-09-23T04:57:54.842Z,75.47
2022-09-23T05:00:23.193Z,77.18
2022-09-23T05:02:50.580Z,73.43
2022-09-23T05:05:22.243Z,67.53
2022-09-23T05:07:48.980Z,67.93
2022-09-23T05:10:15.858Z,71.45
2022-09-23T05:12:42.491Z,72.13
2022-09-23T05:15:09.272Z,67.53
2022-09-23T05:17:37.193Z,67.22
2022-09-23T05:20:04.583Z,75.18
2022-09-23T05:22:31.445Z,66.63
2022-09-23T05:25:00.285Z,68.82
2022-09-23T05:27:27.169Z,70.30
2022-09-23T05:29:53.982Z,76.47
2022-09-23T05:33:10.970Z,61.20
2022-09-23T05:35:37.629Z,55.55
2022-09-23T05:38:04.123Z,61.35
2022-09-23T05:40:30.753Z,54.78
2022-09-23T05:42:57.418Z,57.15
2022-09-23T05:45:26.800Z,55.47
2022-09-23T05:47:53.492Z,60.08
2022-09-23T05:50:20.203Z,54.88
2022-09-23T05:52:46.782Z,50.75
2022-09-23T05:55:13.501Z,50.90
2022-09-23T05:57:40.066Z,59.63
2022-09-23T06:00:07.504Z,50.60
2022-09-23T06:02:38.635Z,46.97
2022-09-23T06:05:05.623Z,46.67
2022-09-23T06:07:32.677Z,48.33
2022-09-23T06:09:59.382Z,46.38
2022-09-23T06:12:26.185Z,49.40
2022-09-23T06:14:53.459Z,42.15
2022-09-23T06:17:20.208Z,49.30
2022-09-23T06:22:10.877Z,54.03
2022-09-23T06:24:37.522Z,43.55
2022-09-23T06:27:04.057Z,45.03
2022-09-23T06:29:33.147Z,51.47
2022-09-23T06:31:59.797Z,53.53
2022-09-23T06:34:26.489Z,45.85
2022-09-23T06:36:53.838Z,49.25
2022-09-23T06:39:20.436Z,44.03
2022-09-23T06:41:47.019Z,39.13
2022-09-23T06:44:14.620Z,44.00
2022-09-23T06:46:41.577Z,57.75
2022-09-23T06:49:08.493Z,57.75
2022-09-23T06:51:35.511Z,59.25
2022-09-23T06:54:02.553Z,63.08
2022-09-23T06:56:30.159Z,51.63
2022-09-23T07:01:18.331Z,47.38
2022-09-23T07:03:47.098Z,51.88
2022-09-23T07:06:14.373Z,58.70
2022-09-23T07:08:49.244Z,48.55
2022-09-23T07:11:19.287Z,45.03
2022-09-23T07:13:45.875Z,49.22
2022-09-23T07:16:12.734Z,39.92
2022-09-23T07:18:40.755Z,50.50
2022-09-23T07:21:16.924Z,54.97
2022-09-23T07:23:48.566Z,53.92
2022-09-23T07:26:16.415Z,48.17
2022-09-23T07:28:43.131Z,43.22
2022-09-23T07:31:13.348Z,42.60
2022-09-23T07:33:44.219Z,54.95
2022-09-23T07:36:17.298Z,44.38
2022-09-23T07:38:45.778Z,45.45
2022-09-23T07:41:15.682Z,38.88
2022-09-23T07:43:44.047Z,43.67
2022-09-23T07:46:16.922Z,47.50
2022-09-23T07:48:45.013Z,44.90
2022-09-23T07:51:20.593Z,33.10
2022-09-23T07:53:51.788Z,32.40
2022-09-23T07:56:19.960Z,31.73
2022-09-23T07:59:00.284Z,32.28
2022-09-23T08:01:38.744Z,35.80
2022-09-23T08:04:08.484Z,39.78
2022-09-23T08:06:35.094Z,33.92
2022-09-23T08:09:03.228Z,37.83
2022-09-23T08:11:31.230Z,36.30
2022-09-23T08:16:27.035Z,28.75
2022-09-23T08:18:53.837Z,24.58
2022-09-23T08:21:21.758Z,23.30
2022-09-23T08:23:49.067Z,22.67
2022-09-23T08:28:33.787Z,28.10
2022-09-23T08:31:00.633Z,28.63
2022-09-23T08:33:27.335Z,17.10
2022-09-23T08:35:59.957Z,13.10
2022-09-23T08:38:27.098Z,14.27
2022-09-23T08:41:04.390Z,13.95
2022-09-23T08:43:33.795Z,14.40
2022-09-23T08:46:10.835Z,15.07
2022-09-23T08:48:47.959Z,15.80
2022-09-23T08:51:19.285Z,15.25
2022-09-23T08:53:47.532Z,13.00
2022-09-23T08:56:23.588Z,11.57
2022-09-23T08:59:07.415Z,14.38
2022-09-23T09:01:40.135Z,10.50
2022-09-23T09:04:14.657Z,15.57
2022-09-23T09:06:53.609Z,10.90
2022-09-23T09:09:29.075Z,12.77
2022-09-23T09:12:03.224Z,15.95
2022-09-23T09:14:50.014Z,11.63
2022-09-23T09:17:35.577Z,17.13
2022-09-23T09:20:19.060Z,17.10
2022-09-23T09:23:02.232Z,20.13
2022-09-23T09:25:37.605Z,19.92
2022-09-23T09:28:22.490Z,18.55
2022-09-23T09:30:56.419Z,19.60
2022-09-23T09:33:33.142Z,17.02
2022-09-23T09:35:59.751Z,16.95
2022-09-23T09:40:48.912Z,12.40
2022-09-23T09:43:23.311Z,10.13
2022-09-23T09:46:21.713Z,12.80
2022-09-23T09:51:31.065Z,12.05
2022-09-23T09:54:18.086Z,14.70
2022-09-23T09:56:45.171Z,9.70
2022-09-23T09:59:22.914Z,10.93
2022-09-23T10:01:49.651Z,9.13
2022-09-23T10:04:31.347Z,9.07
2022-09-23T10:07:12.986Z,13.07
2022-09-23T10:09:47.202Z,10.13
2022-09-23T10:14:47.393Z,9.20
2022-09-23T10:17:39.533Z,9.68
2022-09-23T10:20:14.662Z,13.50
2022-09-23T10:22:42.799Z,11.02
2022-09-23T10:25:27.543Z,10.00
2022-09-23T10:27:54.163Z,25.05
2022-09-23T10:30:23.353Z,10.40
2022-09-23T10:32:53.285Z,6.38
2022-09-23T10:35:23.713Z,8.07
2022-09-23T10:37:56.029Z,15.32
2022-09-23T10:40:48.647Z,6.07
2022-09-23T10:44:29.072Z,28.73
2022-09-23T10:48:11.764Z,5.43
2022-09-23T10:51:12.160Z,8.25
2022-09-23T10:53:47.565Z,6.93
2022-09-23T10:56:46.578Z,8.50
2022-09-23T10:59:55.976Z,8.43
2022-09-23T11:02:40.900Z,8.23
2022-09-23T11:05:33.679Z,7.90
2022-09-23T11:08:12.093Z,7.30
2022-09-23T11:10:55.852Z,7.72
2022-09-23T11:13:52.149Z,8.40
2022-09-23T11:16:45.023Z,7.57
2022-09-23T11:19:35.284Z,6.45
2022-09-23T11:22:39.513Z,8.55
2022-09-23T11:25:32.010Z,8.75
2022-09-23T11:28:17.851Z,6.55
2022-09-23T11:30:53.190Z,6.97
2022-09-23T11:33:49.369Z,7.60
2022-09-23T11:36:23.992Z,5.20
2022-09-23T11:38:54.676Z,5.35
2022-09-23T11:41:26.127Z,4.95
2022-09-23T11:43:59.571Z,4.53
2022-09-23T11:46:42.897Z,5.57
2022-09-23T11:49:15.452Z,5.07
2022-09-23T11:52:01.907Z,4.30
2022-09-23T11:54:45.945Z,5.30
2022-09-23T11:57:24.273Z,5.53
2022-09-23T12:00:00.511Z,7.93
2022-09-23T12:03:00.888Z,5.78
2022-09-23T12:05:37.619Z,3.92
2022-09-23T12:08:32.391Z,5.00
2022-09-23T12:11:17.003Z,5.22
2022-09-23T12:13:54.056Z,4.40
2022-09-23T12:18:52.601Z,2.63
2022-09-23T12:21:49.366Z,5.25
2022-09-23T12:24:36.730Z,3.10
2022-09-23T12:27:10.935Z,4.45
2022-09-23T12:29:40.685Z,5.18
2022-09-23T12:32:09.951Z,4.30
2022-09-23T12:34:48.942Z,3.03
2022-09-23T12:37:43.242Z,7.78
2022-09-23T12:40:24.305Z,7.63
2022-09-23T12:42:51.718Z,12.38
2022-09-23T12:45:37.396Z,5.50
2022-09-23T12:48:14.159Z,7.75
2022-09-23T12:51:07.697Z,7.40
2022-09-23T12:53:34.301Z,5.30
2022-09-23T12:56:14.329Z,9.10
2022-09-23T12:58:43.885Z,18.00
2022-09-23T13:01:23.921Z,10.95
2022-09-23T13:04:17.338Z,7.13
2022-09-23T13:06:54.073Z,7.55
2022-09-23T13:09:24.919Z,7.72
2022-09-23T13:11:53.626Z,14.18
2022-09-23T13:14:27.578Z,6.28
2022-09-23T13:16:58.222Z,10.60
2022-09-23T13:19:28.176Z,8.35
2022-09-23T13:21:54.712Z,6.47
2022-09-23T13:24:31.170Z,9.98
2022-09-23T13:27:13.017Z,9.38
2022-09-23T13:29:49.381Z,6.85
2022-09-23T13:32:21.634Z,6.53
2022-09-23T13:34:59.871Z,5.07
2022-09-23T13:37:48.178Z,7.00
2022-09-23T13:40:27.467Z,8.90
2022-09-23T13:43:06.232Z,4.82
2022-09-23T13:45:38.115Z,13.60
2022-09-23T13:50:38.656Z,5.45
2022-09-23T13:53:17.272Z,8.30
2022-09-23T13:55:43.923Z,9.18
2022-09-23T13:58:23.826Z,9.13
2022-09-23T14:00:51.532Z,8.13
2022-09-23T14:03:37.044Z,7.93
2022-09-23T14:06:08.615Z,7.53
2022-09-23T14:08:37.955Z,6.95
2022-09-23T14:11:06.236Z,4.97
2022-09-23T14:13:41.360Z,10.65
2022-09-23T14:16:11.472Z,5.72
2022-09-23T14:18:51.103Z,5.13
2022-09-23T14:21:34.685Z,4.63
2022-09-23T14:24:10.582Z,3.80
2022-09-23T14:26:39.506Z,6.97
2022-09-23T14:29:12.641Z,5.22
2022-09-23T14:31:39.962Z,4.75
2022-09-23T14:34:46.673Z,4.28
2022-09-23T14:37:42.130Z,3.45
2022-09-23T14:40:13.675Z,4.00
2022-09-23T14:42:44.422Z,8.57
2022-09-23T14:45:19.444Z,5.70
2022-09-23T14:47:50.888Z,4.60
2022-09-23T14:50:36.903Z,5.53
2022-09-23T14:53:35.263Z,4.82
2022-09-23T14:56:11.124Z,4.60
2022-09-23T14:58:52.366Z,5.03
2022-09-23T15:01:30.875Z,9.48
2022-09-23T15:04:13.349Z,6.43
2022-09-23T15:06:47.848Z,4.22
2022-09-23T15:09:23.738Z,4.68
2022-09-23T15:11:59.105Z,5.47
2022-09-23T15:14:37.889Z,3.67
2022-09-23T15:17:13.997Z,5.28
2022-09-23T15:19:40.698Z,7.47
2022-09-23T15:22:09.673Z,8.57
2022-09-23T15:24:37.878Z,4.82
2022-09-23T15:29:25.729Z,18.05
2022-09-23T15:31:52.486Z,18.88
2022-09-23T15:34:20.822Z,20.17
2022-09-23T15:36:48.280Z,16.63
2022-09-23T15:39:15.013Z,13.43
2022-09-23T15:41:44.373Z,12.40
2022-09-23T15:44:18.481Z,9.02
2022-09-23T15:49:15.957Z,6.57
2022-09-23T15:51:42.999Z,7.68
2022-09-23T15:54:12.618Z,9.70
2022-09-23T15:56:39.749Z,18.13
2022-09-23T15:59:06.697Z,24.67
2022-09-23T16:01:36.482Z,26.42
2022-09-23T16:04:04.436Z,29.08
2022-09-23T16:06:32.127Z,21.83
2022-09-23T16:08:58.639Z,14.18
2022-09-23T16:11:29.772Z,15.65
2022-09-23T16:13:56.548Z,13.30
2022-09-23T16:16:23.139Z,11.70
2022-09-23T16:18:51.372Z,7.78
2022-09-23T16:21:21.252Z,9.95
2022-09-23T16:23:49.986Z,13.77
2022-09-23T16:26:22.716Z,14.27
2022-09-23T16:28:51.563Z,10.50
2022-09-23T16:31:18.863Z,10.30
2022-09-23T16:33:47.213Z,10.30
2022-09-23T16:36:22.722Z,12.65
2022-09-23T16:38:49.755Z,11.10
2022-09-23T16:41:16.404Z,9.82
2022-09-23T16:43:42.981Z,8.27
2022-09-23T16:46:12.390Z,8.20
2022-09-23T16:48:40.555Z,6.88
2022-09-23T16:51:23.018Z,8.47
2022-09-23T16:53:51.202Z,8.35
2022-09-23T16:56:24.268Z,9.48
2022-09-23T16:58:54.911Z,16.17
2022-09-23T17:01:45.274Z,15.20
2022-09-23T17:04:13.083Z,16.52
2022-09-23T17:06:50.466Z,9.82
2022-09-23T17:09:19.936Z,11.27
2022-09-23T17:11:52.926Z,19.30
2022-09-23T17:14:22.405Z,16.88
2022-09-23T17:16:48.971Z,9.85
2022-09-23T17:19:15.671Z,11.48
2022-09-23T17:21:42.665Z,13.57
2022-09-23T17:24:10.031Z,16.90
2022-09-23T17:26:36.517Z,12.23
2022-09-23T17:29:03.113Z,16.33
2022-09-23T17:31:30.613Z,16.83
2022-09-23T17:33:57.314Z,13.55
2022-09-23T17:36:24.102Z,15.05
2022-09-23T17:38:53.310Z,18.27
2022-09-23T17:41:20.824Z,18.25
2022-09-23T17:43:48.345Z,17.50
2022-09-23T17:46:18.154Z,23.00
2022-09-23T17:48:45.769Z,18.35
2022-09-23T17:51:16.293Z,22.55
2022-09-23T17:53:45.254Z,13.38
2022-09-23T17:56:24.857Z,17.60
2022-09-23T17:58:53.317Z,11.80
2022-09-23T18:01:23.009Z,10.40
2022-09-23T18:03:57.846Z,13.70
2022-09-23T18:06:27.889Z,30.15
2022-09-23T18:08:56.035Z,16.10
2022-09-23T18:11:24.069Z,27.48
2022-09-23T18:14:10.815Z,18.60
2022-09-23T18:16:40.596Z,11.30
2022-09-23T18:19:12.983Z,20.08
2022-09-23T18:21:42.680Z,23.02
2022-09-23T18:26:59.604Z,22.42
2022-09-23T18:29:26.238Z,21.42
2022-09-23T18:31:52.987Z,25.67
2022-09-23T18:34:20.229Z,48.53
2022-09-23T18:36:47.013Z,36.60
2022-09-23T18:39:13.668Z,22.38
2022-09-23T18:41:41.106Z,22.60
2022-09-23T18:44:08.129Z,26.42
2022-09-23T18:46:35.196Z,40.65
2022-09-23T18:49:20.686Z,21.35
2022-09-23T18:51:55.842Z,21.05
2022-09-23T18:54:29.174Z,21.83
2022-09-23T18:56:56.603Z,22.02
2022-09-23T18:59:26.164Z,37.60
2022-09-23T19:01:55.368Z,40.47
2022-09-23T19:04:24.134Z,30.65
2022-09-23T19:06:50.942Z,34.00
2022-09-23T19:09:18.420Z,30.02
2022-09-23T19:11:45.227Z,33.90
2022-09-23T19:14:12.793Z,29.20
2022-09-23T19:16:41.800Z,34.92
2022-09-23T19:19:09.091Z,28.90
2022-09-23T19:21:36.358Z,31.52
2022-09-23T19:24:06.253Z,24.52
2022-09-23T19:26:38.690Z,22.02
2022-09-23T19:29:11.131Z,23.52
2022-09-23T19:31:40.036Z,21.20
2022-09-23T19:34:11.922Z,20.45
2022-09-23T19:36:42.119Z,26.58
2022-09-23T19:39:18.857Z,34.38
2022-09-23T19:41:46.662Z,33.22
2022-09-23T19:44:13.316Z,32.85
2022-09-23T19:46:44.486Z,29.17
2022-09-23T19:49:13.467Z,32.40
2022-09-23T19:51:40.717Z,28.55
2022-09-23T19:54:08.449Z,27.10
2022-09-23T19:56:35.264Z,31.00
2022-09-23T19:59:05.756Z,30.88
2022-09-23T20:01:32.865Z,22.90
2022-09-23T20:04:00.447Z,23.77
2022-09-23T20:06:32.112Z,30.38
2022-09-23T20:09:02.935Z,24.33
2022-09-23T20:11:30.218Z,29.38
2022-09-23T20:14:05.636Z,22.38
2022-09-23T20:16:34.969Z,29.83
2022-09-23T20:19:02.936Z,34.95
2022-09-23T20:21:30.037Z,31.10
2022-09-23T20:23:57.828Z,32.95
2022-09-23T20:26:44.080Z,32.35
2022-09-23T20:29:11.267Z,43.42
2022-09-23T20:31:40.270Z,36.20
2022-09-23T20:34:08.303Z,40.97
2022-09-23T20:36:35.366Z,37.13
2022-09-23T20:39:06.827Z,24.45
2022-09-23T20:41:37.346Z,22.00
2022-09-23T20:44:07.422Z,25.67
2022-09-23T20:46:34.746Z,28.35
2022-09-23T20:49:04.625Z,25.98
2022-09-23T20:51:33.315Z,23.60
2022-09-23T20:54:00.442Z,20.58
2022-09-23T20:56:29.130Z,20.83
2022-09-23T20:59:05.633Z,17.10
2022-09-23T21:01:35.261Z,18.08
2022-09-23T21:04:07.558Z,17.27
2022-09-23T21:06:37.996Z,24.13
2022-09-23T21:09:06.087Z,25.40
2022-09-23T21:11:32.636Z,28.40
2022-09-23T21:14:01.128Z,26.23
2022-09-23T21:16:28.223Z,25.30
2022-09-23T21:18:54.778Z,27.83
2022-09-23T21:21:22.411Z,27.98
2022-09-23T21:23:50.703Z,25.80
2022-09-23T21:26:23.861Z,31.00
2022-09-23T21:28:57.750Z,33.53
2022-09-23T21:31:32.148Z,32.55
2022-09-23T21:34:04.447Z,31.40
2022-09-23T21:36:33.748Z,32.17
2022-09-23T21:39:03.092Z,36.38
2022-09-23T21:41:30.421Z,36.63
2022-09-23T21:43:57.840Z,31.15
2022-09-23T21:46:25.958Z,30.02
2022-09-23T21:48:54.955Z,34.30
2022-09-23T21:51:24.999Z,32.03
2022-09-23T21:53:53.409Z,35.33
2022-09-23T21:56:23.272Z,25.67
2022-09-23T21:58:50.608Z,29.38
2022-09-23T22:01:23.268Z,53.95
2022-09-23T22:03:55.176Z,63.92
2022-09-23T22:06:30.499Z,41.70
2022-09-23T22:08:59.719Z,32.90
2022-09-23T22:11:47.602Z,47.17
2022-09-23T22:14:16.210Z,79.55
2022-09-23T22:16:43.590Z,71.35
2022-09-23T22:19:12.558Z,66.55
2022-09-23T22:21:40.951Z,72.13
2022-09-23T22:24:09.681Z,62.70
2022-09-23T22:26:41.373Z,61.40
2022-09-23T22:29:29.435Z,50.95
2022-09-23T22:32:14.652Z,50.35
2022-09-23T22:34:53.189Z,49.05
2022-09-23T22:37:25.660Z,50.72
2022-09-23T22:39:52.863Z,54.42
2022-09-23T22:42:22.539Z,52.38
2022-09-23T22:44:50.828Z,48.90
2022-09-23T22:47:18.514Z,46.97
2022-09-23T22:49:46.715Z,48.35
2022-09-23T22:52:15.909Z,41.20
2022-09-23T22:54:43.008Z,44.17
2022-09-23T22:57:10.145Z,43.20
2022-09-23T22:59:41.031Z,40.25
2022-09-23T23:02:08.103Z,47.03
2022-09-23T23:04:36.459Z,48.15
2022-09-23T23:07:03.218Z,44.65
2022-09-23T23:09:29.717Z,36.50
2022-09-23T23:11:56.250Z,41.50
2022-09-23T23:14:22.868Z,44.50
2022-09-23T23:16:49.559Z,38.95
2022-09-23T23:19:17.340Z,43.60
2022-09-23T23:21:45.577Z,37.55
2022-09-23T23:24:17.776Z,36.38
2022-09-23T23:26:45.130Z,39.47
2022-09-23T23:29:13.477Z,39.10
2022-09-23T23:31:41.215Z,38.22
2022-09-23T23:34:12.237Z,42.00
2022-09-23T23:36:39.446Z,35.53
2022-09-23T23:39:05.981Z,40.60
2022-09-23T23:41:33.166Z,40.58
2022-09-23T23:44:00.637Z,40.83
2022-09-23T23:46:29.429Z,39.83
2022-09-23T23:48:57.307Z,37.13
2022-09-23T23:51:27.680Z,41.65
2022-09-23T23:53:55.370Z,38.25
2022-09-23T23:56:25.645Z,40.83
2022-09-23T23:58:57.045Z,42.60
